Time;durP1;ratioP1;P1;durP2;ratioP2;P2;SDS_P1;SDS_P2;PMS_P1;PMS_P2;Temp;Humidity;BMP_temperature;BMP_pressure;BME280_temperature;BME280_humidity;BME280_pressure;Samples;Min_cycle;Max_cycle;Signal;HPM_P1;HPM_P2
2023/02/03 00:01:47;;;;;;;16.85;10.80;;;25.00;91.90;;;;;;1871660;75;21276;-87
2023/02/03 00:04:18;;;;;;;19.67;11.30;;;25.00;92.10;;;;;;1810622;78;21247;-88
2023/02/03 00:06:49;;;;;;;17.32;11.05;;;24.90;92.50;;;;;;1858741;76;21173;-86
2023/02/03 00:09:20;;;;;;;13.78;9.78;;;24.80;92.60;;;;;;1847996;75;21070;-87
2023/02/03 00:11:51;;;;;;;13.55;10.10;;;24.80;92.70;;;;;;1863598;75;21235;-87
2023/02/03 00:14:22;;;;;;;17.60;10.95;;;24.80;96.30;;;;;;1824216;77;21183;-88
2023/02/03 00:16:53;;;;;;;15.35;10.38;;;24.70;93.00;;;;;;1862278;76;21271;-87
2023/02/03 00:19:23;;;;;;;18.80;12.95;;;24.70;93.00;;;;;;1870555;75;21110;-88
2023/02/03 00:21:55;;;;;;;20.80;13.98;;;24.80;93.30;;;;;;1861584;75;21223;-86
2023/02/03 00:24:26;;;;;;;18.42;12.73;;;24.70;93.40;;;;;;1869301;76;21622;-86
2023/02/03 00:26:57;;;;;;;14.15;10.88;;;24.70;93.50;;;;;;1876637;75;21130;-87
2023/02/03 00:29:29;;;;;;;15.60;9.75;;;24.60;93.60;;;;;;1866780;76;21132;-85
2023/02/03 00:32:00;;;;;;;14.53;7.75;;;24.60;95.40;;;;;;1865882;76;21129;-90
2023/02/03 00:34:32;;;;;;;11.12;7.80;;;24.60;93.50;;;;;;1850579;76;21142;-85
2023/02/03 00:37:02;;;;;;;10.03;7.83;;;24.60;94.90;;;;;;1857921;75;21145;-87
2023/02/03 00:39:34;;;;;;;13.08;9.30;;;24.60;93.60;;;;;;1864509;75;21169;-87
2023/02/03 00:42:07;;;;;;;17.23;10.70;;;24.60;93.70;;;;;;1860593;75;21136;-90
2023/02/03 00:44:38;;;;;;;15.45;9.10;;;24.60;93.40;;;;;;1862386;76;21180;-89
2023/02/03 00:47:10;;;;;;;10.63;8.13;;;24.60;93.60;;;;;;1862137;75;21109;-90
2023/02/03 00:49:43;;;;;;;11.68;8.68;;;24.60;93.60;;;;;;1864991;76;21626;-88
2023/02/03 00:52:14;;;;;;;11.10;7.30;;;24.70;93.60;;;;;;1872419;75;21137;-90
2023/02/03 00:54:45;;;;;;;13.32;8.63;;;24.70;93.50;;;;;;1864358;75;21255;-69
2023/02/03 00:57:20;;;;;;;13.43;8.98;;;24.70;93.50;;;;;;1863109;75;21160;-71
2023/02/03 00:59:48;;;;;;;16.07;10.35;;;24.80;93.50;;;;;;1861347;75;21147;-70
2023/02/03 01:02:30;;;;;;;17.32;11.78;;;24.80;93.40;;;;;;1855162;76;21180;-69
2023/02/03 01:04:57;;;;;;;16.15;11.45;;;24.80;93.60;;;;;;1796114;79;21120;-70
2023/02/03 01:07:29;;;;;;;18.05;11.45;;;24.80;93.40;;;;;;1844884;76;21663;-70
2023/02/03 01:10:00;;;;;;;14.98;8.60;;;24.90;93.50;;;;;;1859503;76;21119;-68
2023/02/03 01:12:33;;;;;;;12.55;8.90;;;24.90;93.50;;;;;;1857408;75;21548;-69
2023/02/03 01:15:07;;;;;;;28.07;12.25;;;24.90;93.50;;;;;;1853839;75;21153;-70
2023/02/03 01:17:39;;;;;;;19.95;12.95;;;24.90;93.80;;;;;;1773372;79;21182;-67
2023/02/03 01:20:12;;;;;;;21.35;13.95;;;24.80;93.50;;;;;;1850467;76;21122;-69
2023/02/03 01:22:44;;;;;;;24.75;16.95;;;24.90;93.60;;;;;;1856191;76;21657;-69
2023/02/03 01:25:15;;;;;;;25.52;17.92;;;24.90;93.80;;;;;;1860433;75;21812;-70
2023/02/03 01:27:47;;;;;;;23.05;14.50;;;24.80;93.80;;;;;;1861696;76;21106;-68
2023/02/03 01:30:18;;;;;;;29.95;17.15;;;24.90;94.00;;;;;;1855727;76;21524;-70
2023/02/03 01:32:49;;;;;;;32.23;20.90;;;24.90;94.10;;;;;;1855046;76;21129;-68
2023/02/03 01:35:20;;;;;;;24.75;15.00;;;24.90;94.00;;;;;;1859272;76;21114;-70
2023/02/03 01:37:51;;;;;;;18.35;12.28;;;24.90;93.80;;;;;;1864908;75;21149;-69
2023/02/03 01:40:22;;;;;;;19.27;13.25;;;24.90;93.80;;;;;;1859959;76;21176;-71
2023/02/03 01:42:53;;;;;;;16.37;11.35;;;25.00;93.90;;;;;;1863844;76;21195;-70
2023/02/03 01:45:24;;;;;;;21.75;14.65;;;24.90;93.70;;;;;;1855035;75;21125;-70
2023/02/03 01:47:58;;;;;;;18.42;13.38;;;25.00;93.80;;;;;;1883918;75;21601;-70
2023/02/03 01:50:37;;;;;;;24.60;15.55;;;25.00;94.00;;;;;;1857861;75;21208;-69
2023/02/03 01:53:11;;;;;;;19.07;13.18;;;25.00;93.50;;;;;;1858057;75;21612;-69
2023/02/03 01:55:45;;;;;;;18.45;13.20;;;25.10;93.40;;;;;;1856662;76;21121;-69
2023/02/03 01:58:27;;;;;;;20.77;12.50;;;25.10;93.30;;;;;;1860525;75;21161;-68
2023/02/03 02:01:00;;;;;;;20.10;13.13;;;25.10;93.20;;;;;;1859675;76;21255;-70
2023/02/03 02:03:36;;;;;;;22.90;14.58;;;25.20;93.20;;;;;;1861788;76;21142;-70
2023/02/03 02:06:09;;;;;;;22.23;14.90;;;25.30;93.10;;;;;;1856103;76;21247;-70
2023/02/03 02:08:42;;;;;;;19.45;13.45;;;25.30;92.90;;;;;;1855675;76;21177;-70
2023/02/03 02:11:14;;;;;;;15.63;12.45;;;25.30;92.90;;;;;;1861589;76;21192;-70
2023/02/03 02:13:46;;;;;;;17.23;11.75;;;25.30;92.70;;;;;;1853742;75;21140;-70
2023/02/03 02:16:20;;;;;;;14.35;12.03;;;25.30;92.70;;;;;;1858723;76;21172;-69
2023/02/03 02:19:21;;;;;;;18.70;12.23;;;25.40;92.50;;;;;;1859416;76;21599;-71
2023/02/03 02:22:06;;;;;;;20.97;12.25;;;25.40;92.40;;;;;;1863288;76;21132;-69
2023/02/03 02:24:56;;;;;;;20.12;11.93;;;25.40;92.50;;;;;;1865605;75;21703;-73
2023/02/03 02:27:33;;;;;;;14.65;11.57;;;25.40;92.40;;;;;;1813818;77;21166;-69
2023/02/03 02:30:23;;;;;;;18.35;12.85;;;25.50;92.20;;;;;;1809686;77;21251;-69
2023/02/03 02:33:02;;;;;;;16.62;12.53;;;25.50;92.30;;;;;;1812403;77;21125;-70
2023/02/03 02:35:41;;;;;;;14.45;11.93;;;25.60;92.30;;;;;;1808568;77;21160;-70
2023/02/03 02:38:42;;;;;;;19.15;11.65;;;25.60;92.20;;;;;;1821242;77;21159;-70
2023/02/03 02:41:13;;;;;;;18.57;13.10;;;25.60;92.10;;;;;;1815857;77;21203;-71
2023/02/03 02:43:47;;;;;;;19.30;13.85;;;25.60;92.20;;;;;;1815383;77;21267;-69
2023/02/03 02:46:23;;;;;;;17.00;13.05;;;25.60;92.10;;;;;;1810416;76;21175;-69
2023/02/03 02:49:01;;;;;;;;;;;25.60;92.00;;;;;;1796864;78;21691;-69
2023/02/03 02:51:33;;;;;;;22.05;15.15;;;25.60;91.70;;;;;;1833740;77;20206;-72
2023/02/03 02:54:06;;;;;;;19.82;14.03;;;25.60;91.90;;;;;;1843064;77;21134;-69
2023/02/03 02:56:39;;;;;;;19.80;13.85;;;25.60;91.90;;;;;;1878088;75;21721;-70
2023/02/03 02:59:10;;;;;;;20.30;14.68;;;25.70;91.90;;;;;;1880662;75;21162;-69
2023/02/03 03:01:44;;;;;;;19.50;14.50;;;25.70;91.90;;;;;;1871760;75;21111;-69
2023/02/03 03:04:19;;;;;;;20.80;15.60;;;25.70;91.80;;;;;;1872473;75;21250;-69
2023/02/03 03:06:53;;;;;;;17.32;14.63;;;25.70;91.80;;;;;;1880990;75;21135;-69
2023/02/03 03:09:26;;;;;;;21.33;16.60;;;25.80;91.50;;;;;;1864856;75;21671;-70
2023/02/03 03:12:12;;;;;;;22.55;16.82;;;25.80;91.50;;;;;;1868806;75;21167;-68
2023/02/03 03:14:45;;;;;;;26.10;17.00;;;25.80;91.50;;;;;;1864348;75;21141;-73
2023/02/03 03:17:21;;;;;;;23.42;16.17;;;25.90;91.60;;;;;;1877632;75;21188;-69
2023/02/03 03:19:54;;;;;;;22.45;17.23;;;25.90;91.50;;;;;;1867036;75;21237;-70
2023/02/03 03:22:31;;;;;;;23.18;15.78;;;25.90;91.40;;;;;;1866574;75;21156;-71
2023/02/03 03:25:07;;;;;;;23.90;18.30;;;25.90;91.30;;;;;;1857022;75;21089;-70
2023/02/03 03:27:40;;;;;;;30.35;19.35;;;25.90;91.30;;;;;;1865767;75;21286;-70
2023/02/03 03:30:17;;;;;;;23.25;17.95;;;25.90;91.40;;;;;;1864912;76;21761;-70
2023/02/03 03:32:52;;;;;;;23.02;18.32;;;25.90;91.40;;;;;;1873753;75;21184;-70
2023/02/03 03:35:23;;;;;;;25.15;18.05;;;26.00;91.50;;;;;;1865930;76;21057;-69
2023/02/03 03:38:02;;;;;;;26.05;18.10;;;26.00;91.50;;;;;;1872189;75;21168;-70
2023/02/03 03:40:36;;;;;;;33.28;21.15;;;26.00;91.40;;;;;;1863698;75;21687;-70
2023/02/03 03:43:10;;;;;;;24.72;18.82;;;26.00;91.40;;;;;;1871683;76;21132;-70
2023/02/03 03:45:44;;;;;;;22.95;18.67;;;26.00;91.00;;;;;;1877513;75;21145;-70
2023/02/03 03:48:22;;;;;;;24.23;18.15;;;26.00;91.10;;;;;;1871601;75;21132;-72
2023/02/03 03:50:55;;;;;;;24.55;19.15;;;26.00;91.30;;;;;;1816143;77;21147;-70
2023/02/03 03:53:28;;;;;;;28.25;20.05;;;26.10;91.20;;;;;;1856434;76;22414;-71
2023/02/03 03:56:03;;;;;;;22.55;17.65;;;26.10;91.40;;;;;;1863951;76;21110;-70
2023/02/03 03:58:36;;;;;;;22.02;17.27;;;26.10;91.20;;;;;;1849225;76;21739;-70
2023/02/03 04:01:10;;;;;;;26.10;19.02;;;26.10;91.20;;;;;;1851802;76;21243;-71
2023/02/03 04:03:50;;;;;;;27.10;18.35;;;26.10;91.20;;;;;;1842979;76;21153;-71
2023/02/03 04:06:20;;;;;;;24.77;18.50;;;26.10;91.20;;;;;;1865403;75;21243;-70
2023/02/03 04:09:01;;;;;;;22.37;18.32;;;26.10;91.20;;;;;;1863971;75;21149;-69
2023/02/03 04:14:18;;;;;;;21.80;17.05;;;26.10;91.20;;;;;;1856628;75;21421;-72
2023/02/03 04:16:50;;;;;;;21.87;17.50;;;26.10;91.20;;;;;;1865493;76;21113;-71
2023/02/03 04:19:21;;;;;;;21.17;18.20;;;26.10;91.20;;;;;;1859616;76;21117;-70
2023/02/03 04:21:52;;;;;;;23.02;18.35;;;26.10;91.10;;;;;;1850878;76;21183;-69
2023/02/03 04:24:24;;;;;;;22.55;17.52;;;26.00;91.30;;;;;;1858286;75;21137;-70
2023/02/03 04:26:56;;;;;;;24.57;17.82;;;26.00;91.20;;;;;;1775394;79;21242;-69
2023/02/03 04:29:27;;;;;;;24.00;18.05;;;26.00;91.30;;;;;;1836159;76;21156;-71
2023/02/03 04:31:58;;;;;;;21.20;17.95;;;26.00;91.30;;;;;;1838381;76;21223;-70
2023/02/03 04:34:30;;;;;;;26.30;17.35;;;26.00;91.20;;;;;;1862173;75;21201;-69
2023/02/03 04:37:02;;;;;;;22.27;17.05;;;26.00;91.40;;;;;;1853278;75;21200;-69
2023/02/03 04:39:33;;;;;;;21.12;17.35;;;26.00;91.30;;;;;;1849636;75;21200;-71
2023/02/03 04:42:04;;;;;;;18.65;16.48;;;26.00;91.40;;;;;;1852634;75;21176;-70
2023/02/03 04:44:34;;;;;;;20.88;16.30;;;26.00;91.40;;;;;;1853729;75;21192;-70
2023/02/03 04:47:06;;;;;;;21.07;15.10;;;26.00;91.40;;;;;;1856068;75;21117;-71
2023/02/03 04:49:38;;;;;;;19.65;15.23;;;26.00;91.40;;;;;;1875695;75;21174;-69
2023/02/03 04:52:09;;;;;;;22.07;14.73;;;26.00;91.40;;;;;;1882025;75;21194;-70
2023/02/03 04:54:43;;;;;;;18.95;13.72;;;26.00;91.50;;;;;;1867646;74;21132;-70
2023/02/03 04:57:14;;;;;;;23.02;14.15;;;26.00;91.60;;;;;;1877668;75;21603;-70
2023/02/03 04:59:45;;;;;;;16.40;13.13;;;26.00;91.50;;;;;;1868781;75;21212;-71
2023/02/03 05:02:16;;;;;;;16.67;12.95;;;26.00;91.60;;;;;;1868518;75;21204;-70
2023/02/03 05:04:51;;;;;;;17.67;12.15;;;26.00;91.50;;;;;;1874669;75;21172;-69
2023/02/03 05:07:24;;;;;;;17.70;11.60;;;26.00;91.60;;;;;;1868488;75;21227;-71
2023/02/03 05:09:56;;;;;;;15.63;11.30;;;26.00;91.50;;;;;;1868165;75;21192;-70
2023/02/03 05:12:31;;;;;;;16.15;12.43;;;26.00;91.40;;;;;;1870331;75;21658;-69
2023/02/03 05:15:02;;;;;;;17.90;11.30;;;26.00;91.40;;;;;;1872920;75;21492;-68
2023/02/03 05:17:37;;;;;;;15.35;11.35;;;26.00;91.40;;;;;;1862619;76;21210;-70
2023/02/03 05:20:11;;;;;;;17.40;13.28;;;26.00;91.50;;;;;;1868361;76;21518;-70
2023/02/03 05:22:42;;;;;;;17.92;12.25;;;26.00;91.80;;;;;;1860082;75;21608;-71
2023/02/03 05:25:14;;;;;;;19.55;13.83;;;26.00;91.80;;;;;;1869117;75;21149;-70
2023/02/03 05:27:47;;;;;;;18.20;14.25;;;26.00;92.10;;;;;;1864880;75;21196;-71
2023/02/03 05:30:19;;;;;;;23.12;14.23;;;26.00;92.20;;;;;;1868746;75;21608;-70
2023/02/03 05:32:51;;;;;;;20.60;14.30;;;26.00;92.40;;;;;;1871000;75;21220;-69
2023/02/03 05:35:22;;;;;;;18.20;13.95;;;26.00;92.40;;;;;;1866495;75;21656;-70
2023/02/03 05:37:53;;;;;;;20.55;13.98;;;26.00;92.40;;;;;;1877166;75;21157;-69
2023/02/03 05:43:13;;;;;;;19.00;13.70;;;26.00;92.30;;;;;;1868170;75;21837;-71
2023/02/03 05:45:44;;;;;;;18.15;13.50;;;26.00;92.30;;;;;;1864131;75;21682;-68
2023/02/03 05:48:17;;;;;;;17.20;12.65;;;26.00;92.10;;;;;;1857496;75;21170;-69
2023/02/03 05:50:48;;;;;;;19.42;12.28;;;26.10;92.20;;;;;;1844096;76;21275;-70
2023/02/03 05:53:21;;;;;;;19.23;12.50;;;26.10;92.10;;;;;;1765244;79;21218;-71
2023/02/03 05:55:52;;;;;;;17.05;12.35;;;26.10;92.20;;;;;;1863542;75;21191;-70
2023/02/03 05:58:23;;;;;;;19.12;12.63;;;26.10;92.10;;;;;;1861667;75;21126;-68
2023/02/03 06:00:58;;;;;;;19.57;12.75;;;26.20;92.00;;;;;;1845040;76;21145;-71
2023/02/03 06:03:26;;;;;;;18.95;11.50;;;26.20;92.00;;;;;;1854002;75;21250;-69
2023/02/03 06:05:59;;;;;;;16.12;10.68;;;26.30;91.90;;;;;;1854618;76;21195;-68
2023/02/03 06:08:33;;;;;;;19.12;12.60;;;26.30;91.70;;;;;;1856893;75;21254;-70
2023/02/03 06:11:05;;;;;;;13.22;10.35;;;26.40;91.60;;;;;;1863494;76;21223;-70
2023/02/03 06:13:36;;;;;;;15.63;10.78;;;26.50;91.40;;;;;;1839525;76;21637;-71
2023/02/03 06:16:08;;;;;;;14.00;10.55;;;26.50;91.20;;;;;;1857275;76;21108;-70
2023/02/03 06:18:41;;;;;;;16.57;10.93;;;26.60;91.30;;;;;;1862963;76;21902;-70
2023/02/03 06:21:15;;;;;;;14.87;10.98;;;26.70;91.10;;;;;;1836704;76;21185;-70
2023/02/03 06:23:46;;;;;;;13.32;10.40;;;26.80;91.10;;;;;;1848560;76;21111;-71
2023/02/03 06:26:17;;;;;;;11.53;9.70;;;26.90;90.90;;;;;;1847398;76;21268;-69
2023/02/03 06:28:47;;;;;;;14.43;10.30;;;27.00;90.70;;;;;;1848860;75;21157;-71
2023/02/03 06:31:21;;;;;;;15.83;10.32;;;27.00;90.60;;;;;;1859558;75;21087;-70
2023/02/03 06:33:52;;;;;;;15.45;9.80;;;27.10;90.40;;;;;;1846695;76;21645;-69
2023/02/03 06:36:23;;;;;;;12.40;9.05;;;27.10;90.30;;;;;;1845775;76;21272;-71
2023/02/03 06:38:54;;;;;;;12.93;9.00;;;27.20;90.10;;;;;;1848305;76;21570;-70
2023/02/03 06:41:29;;;;;;;16.95;10.48;;;27.10;90.10;;;;;;1842355;76;22300;-69
2023/02/03 06:43:59;;;;;;;13.05;8.95;;;27.20;90.10;;;;;;1841910;75;21213;-70
2023/02/03 06:46:31;;;;;;;14.53;9.70;;;27.20;90.00;;;;;;1837280;76;21267;-71
2023/02/03 06:49:02;;;;;;;17.25;9.75;;;27.30;89.70;;;;;;1845224;76;21114;-69
2023/02/03 06:51:37;;;;;;;10.53;8.35;;;27.30;89.50;;;;;;1849698;76;21177;-69
2023/02/03 06:54:08;;;;;;;13.05;9.05;;;27.40;89.00;;;;;;1852485;76;21116;-69
2023/02/03 06:56:42;;;;;;;11.22;8.60;;;27.50;89.00;;;;;;1852461;76;21663;-70
2023/02/03 06:59:13;;;;;;;10.30;8.55;;;27.60;88.50;;;;;;1775741;79;21171;-70
2023/02/03 07:01:45;;;;;;;15.13;10.08;;;27.70;88.30;;;;;;1847969;76;21207;-70
2023/02/03 07:04:16;;;;;;;14.53;9.25;;;27.70;89.10;;;;;;1848980;75;21141;-70
2023/02/03 07:06:46;;;;;;;14.38;8.78;;;27.70;87.90;;;;;;1853380;76;21149;-70
2023/02/03 07:09:17;;;;;;;13.20;8.30;;;27.80;87.80;;;;;;1862254;75;21418;-71
2023/02/03 07:11:48;;;;;;;10.90;8.93;;;27.90;87.50;;;;;;1855683;75;21161;-69
2023/02/03 07:14:22;;;;;;;11.40;9.50;;;28.00;87.20;;;;;;1853381;76;21115;-70
2023/02/03 07:16:53;;;;;;;12.03;9.60;;;28.10;87.00;;;;;;1853684;75;21504;-69
2023/02/03 07:19:27;;;;;;;11.85;9.15;;;28.20;86.20;;;;;;1857165;76;21239;-69
2023/02/03 07:22:03;;;;;;;13.50;9.90;;;28.20;85.90;;;;;;1854755;76;21127;-69
2023/02/03 07:24:34;;;;;;;16.97;10.38;;;28.30;85.90;;;;;;1853530;75;21152;-71
2023/02/03 07:27:05;;;;;;;13.72;10.75;;;28.40;85.00;;;;;;1861790;75;21232;-70
2023/02/03 07:29:36;;;;;;;14.47;10.48;;;28.40;85.40;;;;;;1817498;76;21247;-69
2023/02/03 07:32:08;;;;;;;13.53;12.05;;;28.50;84.90;;;;;;1856492;76;21213;-69
2023/02/03 07:34:40;;;;;;;15.48;10.90;;;28.60;84.70;;;;;;1847501;76;21127;-70
2023/02/03 07:37:10;;;;;;;15.78;10.48;;;28.60;84.50;;;;;;1841065;77;21215;-70
2023/02/03 07:39:42;;;;;;;11.80;9.88;;;28.60;84.00;;;;;;1850347;76;21148;-70
2023/02/03 07:42:12;;;;;;;13.30;9.93;;;28.70;84.10;;;;;;1860548;76;21213;-69
2023/02/03 07:44:44;;;;;;;12.05;10.03;;;28.70;83.40;;;;;;1813225;77;21157;-69
2023/02/03 07:47:18;;;;;;;15.23;11.15;;;28.80;83.60;;;;;;1849228;76;21609;-72
2023/02/03 07:49:51;;;;;;;17.10;10.88;;;28.80;83.90;;;;;;1861101;75;21573;-69
2023/02/03 07:52:23;;;;;;;12.73;10.53;;;28.80;84.10;;;;;;1842378;76;21084;-72
2023/02/03 07:54:55;;;;;;;16.50;11.90;;;28.90;84.00;;;;;;1844159;76;21185;-70
2023/02/03 07:57:29;;;;;;;19.98;12.55;;;28.80;83.80;;;;;;1843785;76;21188;-70
2023/02/03 08:00:04;;;;;;;18.07;11.78;;;28.80;83.90;;;;;;1839413;76;21158;-70
2023/02/03 08:02:35;;;;;;;18.57;11.30;;;28.70;83.80;;;;;;1829421;76;21714;-70
2023/02/03 08:05:06;;;;;;;15.10;11.08;;;28.70;84.10;;;;;;1846871;76;21130;-71
2023/02/03 08:07:40;;;;;;;15.28;10.90;;;28.70;84.20;;;;;;1827408;77;21090;-70
2023/02/03 08:10:12;;;;;;;13.18;10.70;;;28.60;84.20;;;;;;1858426;75;21240;-72
2023/02/03 08:12:43;;;;;;;18.65;12.07;;;28.60;84.20;;;;;;1853376;76;21243;-71
2023/02/03 08:15:14;;;;;;;15.08;11.88;;;28.60;84.20;;;;;;1846736;76;21176;-72
2023/02/03 08:17:45;;;;;;;14.68;11.40;;;28.50;84.20;;;;;;1842193;76;21210;-71
2023/02/03 08:20:17;;;;;;;18.70;12.33;;;28.50;84.40;;;;;;1835043;76;21113;-71
2023/02/03 08:22:48;;;;;;;17.85;12.93;;;28.50;84.40;;;;;;1844880;75;21156;-70
2023/02/03 08:25:19;;;;;;;18.42;12.93;;;28.50;84.50;;;;;;1831302;76;21165;-70
2023/02/03 08:27:52;;;;;;;21.73;14.30;;;28.50;84.60;;;;;;1841935;76;21248;-71
2023/02/03 08:30:24;;;;;;;17.45;13.72;;;28.50;84.70;;;;;;1827217;76;21197;-72
2023/02/03 08:32:55;;;;;;;18.95;13.93;;;28.40;84.50;;;;;;1841151;76;21168;-71
2023/02/03 08:35:28;;;;;;;15.63;13.10;;;28.40;84.50;;;;;;1830925;76;21126;-74
2023/02/03 08:37:59;;;;;;;20.27;14.70;;;28.40;84.50;;;;;;1836944;76;21435;-71
2023/02/03 08:40:31;;;;;;;18.32;12.65;;;28.40;84.40;;;;;;1833443;76;21158;-71
2023/02/03 08:43:03;;;;;;;14.13;11.00;;;28.40;84.10;;;;;;1833395;76;21306;-71
2023/02/03 08:45:37;;;;;;;16.70;12.33;;;28.50;83.30;;;;;;1837799;77;21130;-69
2023/02/03 08:48:10;;;;;;;16.37;12.40;;;28.50;83.20;;;;;;1838018;76;21240;-70
2023/02/03 08:50:43;;;;;;;17.80;11.28;;;28.50;83.30;;;;;;1849400;75;21159;-70
2023/02/03 08:53:15;;;;;;;15.18;11.30;;;28.50;83.10;;;;;;1863540;75;21128;-69
2023/02/03 08:55:48;;;;;;;15.40;12.23;;;28.50;83.20;;;;;;1859866;75;21152;-70
2023/02/03 08:58:21;;;;;;;16.32;12.00;;;28.50;83.10;;;;;;1867683;75;21172;-71
2023/02/03 09:00:55;;;;;;;13.13;10.90;;;28.50;83.10;;;;;;1865059;75;21162;-71
2023/02/03 09:03:27;;;;;;;12.50;9.48;;;28.50;82.90;;;;;;1858426;75;21248;-69
2023/02/03 09:05:59;;;;;;;17.48;11.05;;;28.50;82.30;;;;;;1856908;76;21109;-73
2023/02/03 09:08:34;;;;;;;18.75;13.28;;;28.60;82.70;;;;;;1871337;75;21157;-72
2023/02/03 09:11:07;;;;;;;15.03;11.48;;;28.60;82.90;;;;;;1868551;75;21094;-71
2023/02/03 09:13:45;;;;;;;16.60;12.28;;;28.60;82.60;;;;;;1861092;75;21109;-70
2023/02/03 09:16:20;;;;;;;15.72;11.53;;;28.60;82.60;;;;;;1863709;75;21190;-72
2023/02/03 09:18:51;;;;;;;16.20;13.55;;;28.60;82.60;;;;;;1866468;75;21787;-71
2023/02/03 09:21:21;;;;;;;14.95;12.70;;;28.60;82.70;;;;;;1859186;75;21223;-72
2023/02/03 09:23:53;;;;;;;20.30;12.53;;;28.60;82.70;;;;;;1857751;75;21104;-71
2023/02/03 09:26:24;;;;;;;15.48;11.43;;;28.60;82.70;;;;;;1857551;76;21157;-70
2023/02/03 09:28:55;;;;;;;14.68;11.18;;;28.50;82.60;;;;;;1870817;75;21138;-71
2023/02/03 09:31:26;;;;;;;12.70;10.38;;;28.50;82.50;;;;;;1862950;75;21129;-71
2023/02/03 09:33:58;;;;;;;13.83;11.03;;;28.60;82.50;;;;;;1856953;75;21120;-70
2023/02/03 09:36:30;;;;;;;13.95;10.78;;;28.50;82.30;;;;;;1856269;76;21133;-69
2023/02/03 09:39:01;;;;;;;14.38;10.48;;;28.50;82.20;;;;;;1860116;76;21115;-72
2023/02/03 09:42:06;;;;;;;13.45;10.40;;;28.50;82.30;;;;;;1864494;75;21173;-71
2023/02/03 09:44:40;;;;;;;13.70;10.65;;;28.50;82.30;;;;;;1859039;75;21633;-71
2023/02/03 09:47:23;;;;;;;18.37;11.88;;;28.50;82.30;;;;;;1851578;75;21164;-70
2023/02/03 09:50:00;;;;;;;14.45;11.08;;;28.50;82.30;;;;;;1857603;75;21607;-72
2023/02/03 09:52:38;;;;;;;;;;;28.50;82.50;;;;;;1841618;76;21197;-72
2023/02/03 09:55:32;;;;;;;16.15;10.95;;;28.40;82.50;;;;;;1844229;76;20196;-69
2023/02/03 09:58:21;;;;;;;14.73;11.85;;;28.40;82.60;;;;;;1808184;78;21782;-72
2023/02/03 10:01:05;;;;;;;19.42;12.25;;;28.40;82.50;;;;;;1772738;79;21654;-71
2023/02/03 10:03:50;;;;;;;16.77;11.57;;;28.30;82.50;;;;;;1769334;80;21089;-71
2023/02/03 10:06:29;;;;;;;16.57;11.55;;;28.30;82.50;;;;;;1848379;76;21149;-71
2023/02/03 10:09:16;;;;;;;14.53;11.60;;;28.30;82.50;;;;;;1860101;75;21185;-70
2023/02/03 10:11:58;;;;;;;17.07;11.25;;;28.20;82.50;;;;;;1783942;79;21620;-72
2023/02/03 10:14:44;;;;;;;19.37;11.60;;;28.20;82.80;;;;;;1849231;76;21248;-70
2023/02/03 10:17:28;;;;;;;12.93;10.47;;;28.20;82.90;;;;;;1851692;76;21181;-73
2023/02/03 10:20:11;;;;;;;14.40;10.78;;;28.20;82.90;;;;;;1839965;76;21239;-72
2023/02/03 10:22:57;;;;;;;14.53;10.78;;;28.20;82.90;;;;;;1855865;75;21235;-72
2023/02/03 10:25:44;;;;;;;20.10;11.83;;;28.10;82.90;;;;;;1855235;76;21137;-72
2023/02/03 10:28:20;;;;;;;18.92;11.35;;;28.10;83.00;;;;;;1855538;76;21238;-73
2023/02/03 10:30:57;;;;;;;18.90;11.83;;;28.10;83.20;;;;;;1852904;76;21208;-73
2023/02/03 10:33:28;;;;;;;;;;;28.10;83.30;;;;;;1862982;75;21164;-71
2023/02/03 10:36:21;;;;;;;15.45;11.68;;;28.00;83.10;;;;;;1853426;76;20271;-73
2023/02/03 10:39:00;;;;;;;15.10;11.43;;;28.00;83.40;;;;;;1856551;75;21219;-72
2023/02/03 10:41:38;;;;;;;17.30;11.30;;;28.00;83.60;;;;;;1860410;75;21133;-73
2023/02/03 10:44:08;;;;;;;16.75;12.93;;;28.00;83.80;;;;;;1855763;75;21141;-71
2023/02/03 10:46:41;;;;;;;15.48;12.40;;;27.90;84.00;;;;;;1852933;75;21227;-74
2023/02/03 10:49:15;;;;;;;18.32;14.07;;;27.90;84.10;;;;;;1861828;75;21079;-72
2023/02/03 10:52:00;;;;;;;19.27;14.13;;;27.90;84.30;;;;;;1854881;76;21129;-73
2023/02/03 10:54:37;;;;;;;22.40;14.83;;;27.90;84.20;;;;;;1851614;76;21145;-73
2023/02/03 10:57:12;;;;;;;17.10;13.38;;;27.80;84.30;;;;;;1861624;75;21201;-74
2023/02/03 10:59:45;;;;;;;19.40;13.78;;;27.80;84.40;;;;;;1846422;75;21201;-72
2023/02/03 11:02:25;;;;;;;19.95;13.48;;;27.80;84.40;;;;;;1850860;75;21189;-72
2023/02/03 11:05:19;;;;;;;19.57;14.28;;;27.80;84.60;;;;;;1852291;75;21185;-72
2023/02/03 11:07:51;;;;;;;18.35;14.03;;;27.80;84.70;;;;;;1850842;75;21196;-71
2023/02/03 11:10:36;;;;;;;23.07;15.75;;;27.70;85.10;;;;;;1848988;75;21619;-72
2023/02/03 11:13:24;;;;;;;20.65;15.55;;;27.80;85.50;;;;;;1842888;75;21177;-73
2023/02/03 11:16:18;;;;;;;22.73;16.35;;;27.70;85.40;;;;;;1843193;75;21110;-73
2023/02/03 11:19:04;;;;;;;22.90;17.95;;;27.70;85.60;;;;;;1849899;76;21176;-74
2023/02/03 11:21:40;;;;;;;22.58;17.92;;;27.70;86.00;;;;;;1841866;76;21176;-73
2023/02/03 11:24:19;;;;;;;35.68;20.45;;;27.70;86.30;;;;;;1847322;75;21670;-73
2023/02/03 11:27:08;;;;;;;29.50;20.17;;;27.70;86.20;;;;;;1840792;75;21153;-72
2023/02/03 11:29:41;;;;;;;27.27;20.00;;;27.70;86.30;;;;;;1849292;77;21289;-74
2023/02/03 11:32:17;;;;;;;26.15;21.57;;;27.60;86.10;;;;;;1838055;77;21588;-73
2023/02/03 11:35:00;;;;;;;33.10;23.27;;;27.60;85.80;;;;;;1847378;75;21233;-73
2023/02/03 11:37:36;;;;;;;29.50;21.12;;;27.50;85.70;;;;;;1847599;75;21201;-72
2023/02/03 11:40:13;;;;;;;30.72;21.27;;;27.50;85.70;;;;;;1839682;75;21566;-72
2023/02/03 11:42:52;;;;;;;25.12;21.20;;;27.50;86.50;;;;;;1848774;75;21113;-72
2023/02/03 11:45:31;;;;;;;29.50;21.40;;;27.40;86.60;;;;;;1839101;76;21109;-72
2023/02/03 11:48:24;;;;;;;30.57;22.32;;;27.40;86.90;;;;;;1850584;76;21200;-72
2023/02/03 11:51:06;;;;;;;30.77;22.15;;;27.40;86.90;;;;;;1846323;75;21165;-73
2023/02/03 11:54:01;;;;;;;30.43;21.35;;;27.40;87.00;;;;;;1866566;75;21222;-73
2023/02/03 11:56:51;;;;;;;29.57;22.32;;;27.30;87.30;;;;;;1871431;75;21089;-73
2023/02/03 11:59:42;;;;;;;28.60;21.62;;;27.40;87.70;;;;;;1867937;75;21183;-73
2023/02/03 12:02:33;;;;;;;27.87;20.97;;;27.30;87.60;;;;;;1864229;75;21176;-73
2023/02/03 12:05:13;;;;;;;30.20;23.05;;;27.30;87.40;;;;;;1871750;75;21151;-74
2023/02/03 12:08:05;;;;;;;34.83;22.55;;;27.30;87.60;;;;;;1871844;75;21211;-72
2023/02/03 12:10:58;;;;;;;30.35;21.45;;;27.20;87.70;;;;;;1869514;75;21085;-73
2023/02/03 12:13:51;;;;;;;31.07;21.97;;;27.20;87.90;;;;;;1867458;75;21179;-73
2023/02/03 12:16:27;;;;;;;34.55;21.37;;;27.20;88.00;;;;;;1864993;75;21651;-74
2023/02/03 12:19:10;;;;;;;36.15;21.48;;;27.20;87.90;;;;;;1866802;75;21830;-73
2023/02/03 12:21:48;;;;;;;33.02;21.15;;;27.20;87.60;;;;;;1862153;75;21183;-72
2023/02/03 12:24:23;;;;;;;30.23;21.37;;;27.20;87.40;;;;;;1867012;75;21628;-72
2023/02/03 12:26:59;;;;;;;28.12;21.23;;;27.20;87.60;;;;;;1864219;75;21226;-71
2023/02/03 12:29:42;;;;;;;30.23;20.85;;;27.20;87.70;;;;;;1865940;75;21798;-71
2023/02/03 12:32:36;;;;;;;26.73;19.82;;;27.10;87.50;;;;;;1869063;75;21219;-72
2023/02/03 12:35:18;;;;;;;28.05;20.32;;;27.10;87.50;;;;;;1871473;75;21164;-71
2023/02/03 12:38:00;;;;;;;25.60;19.45;;;27.10;87.40;;;;;;1872289;75;21751;-82
2023/02/03 12:40:59;;;;;;;26.17;19.62;;;27.10;87.30;;;;;;1836620;75;21156;-84
2023/02/03 12:44:02;;;;;;;27.42;19.82;;;27.10;87.30;;;;;;1874080;75;21125;-81
2023/02/03 12:46:32;;;;;;;24.77;19.37;;;27.10;87.30;;;;;;1866328;76;21644;-82
2023/02/03 12:49:17;;;;;;;27.75;19.55;;;27.10;87.10;;;;;;1868040;76;21156;-82
2023/02/03 12:51:53;;;;;;;27.75;19.20;;;27.10;86.90;;;;;;1830670;76;21142;-82
2023/02/03 12:54:53;;;;;;;27.50;20.32;;;27.10;86.90;;;;;;1786089;79;21167;-83
2023/02/03 12:57:28;;;;;;;31.05;23.12;;;27.10;87.00;;;;;;1854458;75;21076;-83
2023/02/03 13:00:17;;;;;;;28.85;23.83;;;27.10;87.20;;;;;;1846059;76;21179;-81
2023/02/03 13:03:15;;;;;;;39.70;29.07;;;27.00;87.10;;;;;;1833573;77;21194;-83
2023/02/03 13:05:58;;;;;;;51.83;32.53;;;27.00;87.40;;;;;;1851353;76;21204;-81
2023/02/03 13:08:43;;;;;;;43.95;33.65;;;27.00;87.60;;;;;;1846484;76;21149;-84
2023/02/03 13:11:31;;;;;;;46.23;38.23;;;27.00;87.80;;;;;;1837343;77;21153;-83
2023/02/03 13:14:07;;;;;;;63.10;44.18;;;27.00;88.10;;;;;;1845315;76;21954;-82
2023/02/03 13:16:41;;;;;;;61.48;48.35;;;26.90;88.40;;;;;;1857587;76;21721;-82